sensor_id;sensor_type;location;lat;lon;timestamp;pressure;altitude;pressure_sealevel;temperature;humidity
38616;BME280;24370;51.986;4.666;2023-04-25T00:00:38;101211.53;;;13.94;48.32
38616;BME280;24370;51.986;4.666;2023-04-25T00:03:03;101209.84;;;13.91;48.02
38616;BME280;24370;51.986;4.666;2023-04-25T00:05:31;101206.38;;;12.70;50.84
38616;BME280;24370;51.986;4.666;2023-04-25T00:07:57;101217.91;;;13.80;49.06
38616;BME280;24370;51.986;4.666;2023-04-25T00:10:23;101226.44;;;14.41;47.47
38616;BME280;24370;51.986;4.666;2023-04-25T00:12:48;101222.59;;;14.58;46.90
38616;BME280;24370;51.986;4.666;2023-04-25T00:15:14;101219.22;;;14.51;46.34
38616;BME280;24370;51.986;4.666;2023-04-25T00:17:39;101221.44;;;13.78;47.67
38616;BME280;24370;51.986;4.666;2023-04-25T00:20:05;101221.50;;;13.74;48.14
38616;BME280;24370;51.986;4.666;2023-04-25T00:22:32;101226.00;;;14.16;47.03
38616;BME280;24370;51.986;4.666;2023-04-25T00:24:59;101228.63;;;14.65;46.20
38616;BME280;24370;51.986;4.666;2023-04-25T00:27:26;101226.78;;;14.23;47.23
38616;BME280;24370;51.986;4.666;2023-04-25T00:29:52;101230.91;;;14.82;45.93
38616;BME280;24370;51.986;4.666;2023-04-25T00:32:17;101225.13;;;14.64;44.96
38616;BME280;24370;51.986;4.666;2023-04-25T00:34:42;101225.94;;;14.68;45.38
38616;BME280;24370;51.986;4.666;2023-04-25T00:37:08;101216.78;;;13.95;46.58
38616;BME280;24370;51.986;4.666;2023-04-25T00:39:33;101219.56;;;14.80;45.57
38616;BME280;24370;51.986;4.666;2023-04-25T00:41:58;101224.22;;;14.65;45.75
38616;BME280;24370;51.986;4.666;2023-04-25T00:44:24;101232.81;;;14.73;45.54
38616;BME280;24370;51.986;4.666;2023-04-25T00:46:50;101230.78;;;13.94;48.18
38616;BME280;24370;51.986;4.666;2023-04-25T00:49:16;101237.97;;;14.34;46.57
38616;BME280;24370;51.986;4.666;2023-04-25T00:51:43;101230.44;;;14.59;45.88
38616;BME280;24370;51.986;4.666;2023-04-25T00:54:11;101238.34;;;13.61;47.38
38616;BME280;24370;51.986;4.666;2023-04-25T00:56:37;101238.91;;;13.82;47.01
38616;BME280;24370;51.986;4.666;2023-04-25T00:59:03;101239.28;;;14.10;46.05
38616;BME280;24370;51.986;4.666;2023-04-25T01:01:31;101237.03;;;14.37;46.58
38616;BME280;24370;51.986;4.666;2023-04-25T01:03:58;101240.84;;;14.67;46.72
38616;BME280;24370;51.986;4.666;2023-04-25T01:06:24;101237.38;;;15.07;45.38
38616;BME280;24370;51.986;4.666;2023-04-25T01:08:51;101235.09;;;15.30;44.90
38616;BME280;24370;51.986;4.666;2023-04-25T01:11:16;101239.97;;;15.47;43.93
38616;BME280;24370;51.986;4.666;2023-04-25T01:13:42;101244.19;;;14.75;44.41
38616;BME280;24370;51.986;4.666;2023-04-25T01:16:07;101241.16;;;14.94;44.66
38616;BME280;24370;51.986;4.666;2023-04-25T01:18:33;101243.97;;;14.39;44.86
38616;BME280;24370;51.986;4.666;2023-04-25T01:21:16;101244.91;;;14.37;45.92
38616;BME280;24370;51.986;4.666;2023-04-25T01:23:42;101244.63;;;14.05;46.49
38616;BME280;24370;51.986;4.666;2023-04-25T01:26:11;101252.56;;;14.51;45.36
38616;BME280;24370;51.986;4.666;2023-04-25T01:28:37;101252.50;;;14.54;46.06
38616;BME280;24370;51.986;4.666;2023-04-25T01:31:05;101248.50;;;14.78;44.76
38616;BME280;24370;51.986;4.666;2023-04-25T01:33:30;101250.47;;;14.68;44.31
38616;BME280;24370;51.986;4.666;2023-04-25T01:35:56;101260.81;;;14.31;45.58
38616;BME280;24370;51.986;4.666;2023-04-25T01:38:21;101259.22;;;14.70;45.08
38616;BME280;24370;51.986;4.666;2023-04-25T01:40:49;101261.81;;;14.72;45.61
38616;BME280;24370;51.986;4.666;2023-04-25T01:43:16;101263.00;;;14.54;45.60
38616;BME280;24370;51.986;4.666;2023-04-25T01:45:41;101268.84;;;14.23;47.29
38616;BME280;24370;51.986;4.666;2023-04-25T01:48:08;101263.34;;;14.35;46.16
38616;BME280;24370;51.986;4.666;2023-04-25T01:50:34;101258.19;;;14.31;47.19
38616;BME280;24370;51.986;4.666;2023-04-25T01:53:00;101268.38;;;14.48;45.93
38616;BME280;24370;51.986;4.666;2023-04-25T01:55:26;101276.19;;;14.52;45.66
38616;BME280;24370;51.986;4.666;2023-04-25T01:57:52;101271.41;;;14.74;45.41
38616;BME280;24370;51.986;4.666;2023-04-25T02:00:17;101268.44;;;14.45;46.64
38616;BME280;24370;51.986;4.666;2023-04-25T02:02:43;101266.69;;;14.43;46.46
38616;BME280;24370;51.986;4.666;2023-04-25T02:05:08;101271.03;;;14.46;46.70
38616;BME280;24370;51.986;4.666;2023-04-25T02:07:34;101280.22;;;14.72;46.15
38616;BME280;24370;51.986;4.666;2023-04-25T02:09:59;101280.41;;;14.63;47.20
38616;BME280;24370;51.986;4.666;2023-04-25T02:12:25;101273.19;;;15.15;45.92
38616;BME280;24370;51.986;4.666;2023-04-25T02:14:51;101271.06;;;14.90;46.42
38616;BME280;24370;51.986;4.666;2023-04-25T02:17:16;101271.41;;;14.74;45.28
38616;BME280;24370;51.986;4.666;2023-04-25T02:19:43;101272.97;;;15.24;45.58
38616;BME280;24370;51.986;4.666;2023-04-25T02:22:08;101273.69;;;15.32;44.55
38616;BME280;24370;51.986;4.666;2023-04-25T02:24:34;101273.00;;;14.82;45.31
38616;BME280;24370;51.986;4.666;2023-04-25T02:27:00;101279.41;;;15.10;44.96
38616;BME280;24370;51.986;4.666;2023-04-25T02:29:25;101281.97;;;15.14;43.78
38616;BME280;24370;51.986;4.666;2023-04-25T02:31:51;101276.75;;;14.71;44.11
38616;BME280;24370;51.986;4.666;2023-04-25T02:34:16;101276.34;;;14.90;43.92
38616;BME280;24370;51.986;4.666;2023-04-25T02:36:42;101277.69;;;14.66;44.70
38616;BME280;24370;51.986;4.666;2023-04-25T02:39:07;101276.97;;;14.56;43.65
38616;BME280;24370;51.986;4.666;2023-04-25T02:41:33;101288.69;;;14.88;44.14
38616;BME280;24370;51.986;4.666;2023-04-25T02:43:58;101281.41;;;14.99;43.02
38616;BME280;24370;51.986;4.666;2023-04-25T02:46:23;101285.00;;;14.95;43.64
38616;BME280;24370;51.986;4.666;2023-04-25T02:48:49;101281.91;;;15.18;43.28
38616;BME280;24370;51.986;4.666;2023-04-25T02:51:14;101286.03;;;15.29;43.17
38616;BME280;24370;51.986;4.666;2023-04-25T02:53:41;101291.91;;;15.41;43.35
38616;BME280;24370;51.986;4.666;2023-04-25T02:56:06;101282.34;;;15.37;42.65
38616;BME280;24370;51.986;4.666;2023-04-25T02:58:32;101281.75;;;14.84;42.95
38616;BME280;24370;51.986;4.666;2023-04-25T03:00:57;101275.75;;;15.18;42.91
38616;BME280;24370;51.986;4.666;2023-04-25T03:03:22;101275.66;;;14.80;43.13
38616;BME280;24370;51.986;4.666;2023-04-25T03:05:51;101273.88;;;15.60;43.13
38616;BME280;24370;51.986;4.666;2023-04-25T03:08:17;101274.06;;;15.90;42.27
38616;BME280;24370;51.986;4.666;2023-04-25T03:10:43;101281.69;;;15.65;42.31
38616;BME280;24370;51.986;4.666;2023-04-25T03:13:09;101280.59;;;15.36;42.30
38616;BME280;24370;51.986;4.666;2023-04-25T03:15:35;101280.41;;;15.46;43.19
38616;BME280;24370;51.986;4.666;2023-04-25T03:18:01;101273.59;;;15.73;42.68
38616;BME280;24370;51.986;4.666;2023-04-25T03:20:26;101277.31;;;15.64;43.20
38616;BME280;24370;51.986;4.666;2023-04-25T03:22:52;101276.97;;;15.80;43.16
38616;BME280;24370;51.986;4.666;2023-04-25T03:25:17;101278.66;;;16.17;41.39
38616;BME280;24370;51.986;4.666;2023-04-25T03:27:42;101280.06;;;16.30;41.81
38616;BME280;24370;51.986;4.666;2023-04-25T03:30:08;101278.28;;;15.98;41.79
38616;BME280;24370;51.986;4.666;2023-04-25T03:32:34;101291.00;;;14.58;43.43
38616;BME280;24370;51.986;4.666;2023-04-25T03:34:59;101290.56;;;14.33;44.45
38616;BME280;24370;51.986;4.666;2023-04-25T03:37:25;101293.56;;;14.13;44.83
38616;BME280;24370;51.986;4.666;2023-04-25T03:39:50;101300.34;;;14.74;44.16
38616;BME280;24370;51.986;4.666;2023-04-25T03:42:16;101306.31;;;13.83;45.31
38616;BME280;24370;51.986;4.666;2023-04-25T03:44:41;101310.03;;;15.15;44.10
38616;BME280;24370;51.986;4.666;2023-04-25T03:47:07;101309.84;;;13.82;45.78
38616;BME280;24370;51.986;4.666;2023-04-25T03:49:34;101307.44;;;14.21;45.39
38616;BME280;24370;51.986;4.666;2023-04-25T03:52:00;101303.09;;;14.68;44.63
38616;BME280;24370;51.986;4.666;2023-04-25T03:54:26;101311.75;;;14.25;45.01
38616;BME280;24370;51.986;4.666;2023-04-25T03:56:51;101294.63;;;14.01;46.25
38616;BME280;24370;51.986;4.666;2023-04-25T03:59:16;101310.03;;;14.72;45.17
38616;BME280;24370;51.986;4.666;2023-04-25T04:01:42;101316.34;;;15.47;44.60
38616;BME280;24370;51.986;4.666;2023-04-25T04:04:07;101314.81;;;15.38;43.36
38616;BME280;24370;51.986;4.666;2023-04-25T04:06:32;101319.25;;;15.34;43.96
38616;BME280;24370;51.986;4.666;2023-04-25T04:08:58;101315.63;;;14.54;45.27
38616;BME280;24370;51.986;4.666;2023-04-25T04:11:23;101313.25;;;15.27;44.10
38616;BME280;24370;51.986;4.666;2023-04-25T04:13:49;101329.31;;;15.56;44.15
38616;BME280;24370;51.986;4.666;2023-04-25T04:16:14;101327.03;;;15.80;43.57
38616;BME280;24370;51.986;4.666;2023-04-25T04:18:40;101324.56;;;14.92;44.64
38616;BME280;24370;51.986;4.666;2023-04-25T04:21:05;101322.53;;;14.59;46.18
38616;BME280;24370;51.986;4.666;2023-04-25T04:23:30;101325.47;;;14.41;45.35
38616;BME280;24370;51.986;4.666;2023-04-25T04:25:56;101327.00;;;15.01;44.88
38616;BME280;24370;51.986;4.666;2023-04-25T04:28:21;101331.88;;;15.20;44.61
38616;BME280;24370;51.986;4.666;2023-04-25T04:30:47;101335.19;;;14.86;44.99
38616;BME280;24370;51.986;4.666;2023-04-25T04:33:13;101336.78;;;14.95;44.93
38616;BME280;24370;51.986;4.666;2023-04-25T04:35:40;101335.66;;;15.06;45.73
38616;BME280;24370;51.986;4.666;2023-04-25T04:38:06;101331.97;;;14.73;45.05
38616;BME280;24370;51.986;4.666;2023-04-25T04:40:32;101330.06;;;15.22;44.82
38616;BME280;24370;51.986;4.666;2023-04-25T04:42:57;101335.75;;;15.03;44.62
38616;BME280;24370;51.986;4.666;2023-04-25T04:45:23;101346.75;;;14.79;44.92
38616;BME280;24370;51.986;4.666;2023-04-25T04:47:49;101347.22;;;14.99;44.69
38616;BME280;24370;51.986;4.666;2023-04-25T04:50:15;101348.88;;;15.05;44.69
38616;BME280;24370;51.986;4.666;2023-04-25T04:52:41;101353.19;;;15.07;44.36
38616;BME280;24370;51.986;4.666;2023-04-25T04:55:07;101363.31;;;13.81;47.08
38616;BME280;24370;51.986;4.666;2023-04-25T04:57:33;101370.91;;;12.56;49.79
38616;BME280;24370;51.986;4.666;2023-04-25T04:59:59;101363.97;;;13.31;47.51
38616;BME280;24370;51.986;4.666;2023-04-25T05:02:25;101370.78;;;13.48;47.33
38616;BME280;24370;51.986;4.666;2023-04-25T05:04:51;101373.16;;;12.93;47.17
38616;BME280;24370;51.986;4.666;2023-04-25T05:07:18;101376.47;;;13.07;48.14
38616;BME280;24370;51.986;4.666;2023-04-25T05:09:43;101380.88;;;13.05;47.42
38616;BME280;24370;51.986;4.666;2023-04-25T05:12:09;101375.00;;;12.85;47.94
38616;BME280;24370;51.986;4.666;2023-04-25T05:14:34;101385.34;;;14.27;45.06
38616;BME280;24370;51.986;4.666;2023-04-25T05:17:00;101381.63;;;14.40;45.22
38616;BME280;24370;51.986;4.666;2023-04-25T05:19:25;101388.75;;;14.83;44.35
38616;BME280;24370;51.986;4.666;2023-04-25T05:21:51;101388.78;;;14.82;44.27
38616;BME280;24370;51.986;4.666;2023-04-25T05:24:17;101384.78;;;15.07;43.56
38616;BME280;24370;51.986;4.666;2023-04-25T05:26:42;101391.09;;;15.00;44.24
38616;BME280;24370;51.986;4.666;2023-04-25T05:29:08;101407.50;;;14.66;44.77
38616;BME280;24370;51.986;4.666;2023-04-25T05:31:34;101408.94;;;14.84;44.47
38616;BME280;24370;51.986;4.666;2023-04-25T05:33:59;101415.88;;;14.35;45.15
38616;BME280;24370;51.986;4.666;2023-04-25T05:36:25;101416.91;;;14.80;44.75
38616;BME280;24370;51.986;4.666;2023-04-25T05:38:51;101416.63;;;14.95;44.31
38616;BME280;24370;51.986;4.666;2023-04-25T05:41:16;101416.38;;;15.51;43.58
38616;BME280;24370;51.986;4.666;2023-04-25T05:43:41;101433.94;;;15.08;43.79
38616;BME280;24370;51.986;4.666;2023-04-25T05:46:12;101436.44;;;14.66;43.71
38616;BME280;24370;51.986;4.666;2023-04-25T05:48:37;101432.72;;;14.23;44.26
38616;BME280;24370;51.986;4.666;2023-04-25T05:51:06;101443.09;;;14.34;45.23
38616;BME280;24370;51.986;4.666;2023-04-25T05:53:31;101455.78;;;14.06;45.69
38616;BME280;24370;51.986;4.666;2023-04-25T05:55:57;101455.22;;;13.06;46.85
38616;BME280;24370;51.986;4.666;2023-04-25T05:58:22;101462.84;;;12.34;48.82
38616;BME280;24370;51.986;4.666;2023-04-25T06:00:47;101455.50;;;13.62;45.92
38616;BME280;24370;51.986;4.666;2023-04-25T06:03:13;101454.38;;;13.80;45.94
38616;BME280;24370;51.986;4.666;2023-04-25T06:05:42;101464.53;;;13.36;46.77
38616;BME280;24370;51.986;4.666;2023-04-25T06:08:07;101474.81;;;12.66;48.49
38616;BME280;24370;51.986;4.666;2023-04-25T06:10:33;101470.53;;;12.59;48.40
38616;BME280;24370;51.986;4.666;2023-04-25T06:12:58;101477.88;;;13.13;47.62
38616;BME280;24370;51.986;4.666;2023-04-25T06:15:24;101493.75;;;11.70;49.88
38616;BME280;24370;51.986;4.666;2023-04-25T06:17:49;101486.72;;;11.76;50.40
38616;BME280;24370;51.986;4.666;2023-04-25T06:20:14;101496.53;;;11.12;50.60
38616;BME280;24370;51.986;4.666;2023-04-25T06:22:40;101501.53;;;11.95;49.63
38616;BME280;24370;51.986;4.666;2023-04-25T06:25:05;101498.06;;;11.81;49.85
38616;BME280;24370;51.986;4.666;2023-04-25T06:27:32;101507.78;;;11.57;50.09
38616;BME280;24370;51.986;4.666;2023-04-25T06:29:58;101514.53;;;12.14;50.85
38616;BME280;24370;51.986;4.666;2023-04-25T06:32:23;101511.31;;;11.31;52.29
38616;BME280;24370;51.986;4.666;2023-04-25T06:34:49;101509.16;;;12.35;50.97
38616;BME280;24370;51.986;4.666;2023-04-25T06:37:14;101493.63;;;13.16;50.00
38616;BME280;24370;51.986;4.666;2023-04-25T06:39:39;101494.31;;;14.66;45.95
38616;BME280;24370;51.986;4.666;2023-04-25T06:42:05;101497.34;;;14.95;45.20
38616;BME280;24370;51.986;4.666;2023-04-25T06:44:30;101492.22;;;13.65;46.40
38616;BME280;24370;51.986;4.666;2023-04-25T06:46:55;101494.75;;;14.35;45.13
38616;BME280;24370;51.986;4.666;2023-04-25T06:49:21;101493.75;;;14.99;43.78
38616;BME280;24370;51.986;4.666;2023-04-25T06:51:47;101499.19;;;14.91;44.40
38616;BME280;24370;51.986;4.666;2023-04-25T06:54:12;101492.66;;;15.10;43.93
38616;BME280;24370;51.986;4.666;2023-04-25T06:56:37;101496.03;;;15.64;42.00
38616;BME280;24370;51.986;4.666;2023-04-25T06:59:04;101504.22;;;16.33;39.78
38616;BME280;24370;51.986;4.666;2023-04-25T07:01:30;101505.06;;;16.35;40.97
38616;BME280;24370;51.986;4.666;2023-04-25T07:03:55;101502.22;;;16.43;40.27
38616;BME280;24370;51.986;4.666;2023-04-25T07:06:21;101492.25;;;16.56;39.15
38616;BME280;24370;51.986;4.666;2023-04-25T07:08:46;101496.06;;;16.78;39.38
38616;BME280;24370;51.986;4.666;2023-04-25T07:11:11;101506.03;;;16.67;39.75
38616;BME280;24370;51.986;4.666;2023-04-25T07:13:37;101502.41;;;16.35;40.73
38616;BME280;24370;51.986;4.666;2023-04-25T07:16:02;101500.47;;;16.04;40.67
38616;BME280;24370;51.986;4.666;2023-04-25T07:18:28;101503.97;;;16.06;40.94
38616;BME280;24370;51.986;4.666;2023-04-25T07:20:53;101508.72;;;15.89;40.85
38616;BME280;24370;51.986;4.666;2023-04-25T07:23:19;101507.31;;;15.71;41.80
38616;BME280;24370;51.986;4.666;2023-04-25T07:25:44;101507.09;;;16.60;39.90
38616;BME280;24370;51.986;4.666;2023-04-25T07:28:09;101505.06;;;17.07;39.81
38616;BME280;24370;51.986;4.666;2023-04-25T07:30:35;101527.31;;;16.61;40.37
38616;BME280;24370;51.986;4.666;2023-04-25T07:33:01;101517.44;;;16.69;39.53
38616;BME280;24370;51.986;4.666;2023-04-25T07:35:27;101531.88;;;16.92;40.48
38616;BME280;24370;51.986;4.666;2023-04-25T07:37:52;101516.44;;;17.42;38.85
38616;BME280;24370;51.986;4.666;2023-04-25T07:40:17;101520.09;;;17.38;38.94
38616;BME280;24370;51.986;4.666;2023-04-25T07:42:43;101525.56;;;16.98;40.09
38616;BME280;24370;51.986;4.666;2023-04-25T07:45:08;101520.25;;;17.63;39.01
38616;BME280;24370;51.986;4.666;2023-04-25T07:47:34;101532.81;;;16.52;40.02
38616;BME280;24370;51.986;4.666;2023-04-25T07:50:00;101531.34;;;16.01;40.65
38616;BME280;24370;51.986;4.666;2023-04-25T07:52:25;101529.78;;;16.31;39.52
38616;BME280;24370;51.986;4.666;2023-04-25T07:54:51;101519.91;;;17.76;37.45
38616;BME280;24370;51.986;4.666;2023-04-25T07:57:16;101527.78;;;18.37;37.16
38616;BME280;24370;51.986;4.666;2023-04-25T07:59:43;101532.13;;;18.95;34.92
38616;BME280;24370;51.986;4.666;2023-04-25T08:02:08;101534.50;;;18.47;34.82
38616;BME280;24370;51.986;4.666;2023-04-25T08:04:34;101540.72;;;16.88;35.62
38616;BME280;24370;51.986;4.666;2023-04-25T08:06:59;101545.06;;;15.71;37.43
38616;BME280;24370;51.986;4.666;2023-04-25T08:09:25;101549.56;;;15.21;38.63
38616;BME280;24370;51.986;4.666;2023-04-25T08:11:50;101558.91;;;14.86;38.86
38616;BME280;24370;51.986;4.666;2023-04-25T08:14:15;101574.50;;;14.39;39.59
38616;BME280;24370;51.986;4.666;2023-04-25T08:16:41;101569.50;;;14.83;39.45
38616;BME280;24370;51.986;4.666;2023-04-25T08:19:07;101566.38;;;15.59;36.80
38616;BME280;24370;51.986;4.666;2023-04-25T08:21:32;101567.28;;;19.00;34.05
38616;BME280;24370;51.986;4.666;2023-04-25T08:23:58;101564.44;;;20.28;31.16
38616;BME280;24370;51.986;4.666;2023-04-25T08:26:24;101569.09;;;19.25;30.48
38616;BME280;24370;51.986;4.666;2023-04-25T08:28:50;101569.59;;;19.09;30.93
38616;BME280;24370;51.986;4.666;2023-04-25T08:31:16;101581.59;;;18.66;32.18
38616;BME280;24370;51.986;4.666;2023-04-25T08:33:42;101576.78;;;18.51;30.98
38616;BME280;24370;51.986;4.666;2023-04-25T08:36:07;101592.03;;;17.15;34.08
38616;BME280;24370;51.986;4.666;2023-04-25T08:38:33;101597.06;;;16.90;33.67
38616;BME280;24370;51.986;4.666;2023-04-25T08:40:59;101601.63;;;16.82;35.22
38616;BME280;24370;51.986;4.666;2023-04-25T08:43:26;101609.03;;;16.25;35.11
38616;BME280;24370;51.986;4.666;2023-04-25T08:45:58;101619.44;;;15.40;36.63
38616;BME280;24370;51.986;4.666;2023-04-25T08:48:26;101612.56;;;16.65;35.61
38616;BME280;24370;51.986;4.666;2023-04-25T08:50:54;101613.56;;;17.34;35.58
38616;BME280;24370;51.986;4.666;2023-04-25T08:53:25;101598.88;;;18.76;33.17
38616;BME280;24370;51.986;4.666;2023-04-25T08:55:53;101617.56;;;18.43;32.39
38616;BME280;24370;51.986;4.666;2023-04-25T08:58:19;101610.25;;;20.09;31.38
38616;BME280;24370;51.986;4.666;2023-04-25T09:00:46;101618.06;;;18.85;31.49
38616;BME280;24370;51.986;4.666;2023-04-25T09:03:12;101625.97;;;18.58;32.22
38616;BME280;24370;51.986;4.666;2023-04-25T09:05:39;101633.78;;;16.99;34.26
38616;BME280;24370;51.986;4.666;2023-04-25T09:08:05;101635.28;;;18.11;32.25
38616;BME280;24370;51.986;4.666;2023-04-25T09:10:31;101638.28;;;17.99;31.45
38616;BME280;24370;51.986;4.666;2023-04-25T09:13:06;101642.69;;;19.15;31.80
38616;BME280;24370;51.986;4.666;2023-04-25T09:15:46;101653.41;;;18.84;31.38
38616;BME280;24370;51.986;4.666;2023-04-25T09:18:12;101648.88;;;19.15;30.75
38616;BME280;24370;51.986;4.666;2023-04-25T09:20:43;101657.75;;;19.92;30.12
38616;BME280;24370;51.986;4.666;2023-04-25T09:23:09;101653.56;;;19.07;30.03
38616;BME280;24370;51.986;4.666;2023-04-25T09:25:38;101654.03;;;18.02;30.61
38616;BME280;24370;51.986;4.666;2023-04-25T09:28:08;101669.94;;;19.72;29.65
38616;BME280;24370;51.986;4.666;2023-04-25T09:30:35;101675.47;;;17.93;33.62
38616;BME280;24370;51.986;4.666;2023-04-25T09:33:06;101690.22;;;15.06;40.09
38616;BME280;24370;51.986;4.666;2023-04-25T09:35:44;101702.50;;;15.05;40.75
38616;BME280;24370;51.986;4.666;2023-04-25T09:38:14;101689.91;;;16.26;39.83
38616;BME280;24370;51.986;4.666;2023-04-25T09:43:19;101696.75;;;17.87;37.22
38616;BME280;24370;51.986;4.666;2023-04-25T09:45:45;101694.94;;;19.11;34.37
38616;BME280;24370;51.986;4.666;2023-04-25T09:48:20;101706.00;;;17.70;35.45
38616;BME280;24370;51.986;4.666;2023-04-25T09:51:13;101716.00;;;17.23;36.84
38616;BME280;24370;51.986;4.666;2023-04-25T09:53:43;101697.25;;;20.01;33.44
38616;BME280;24370;51.986;4.666;2023-04-25T09:56:10;101719.03;;;18.12;35.20
38616;BME280;24370;51.986;4.666;2023-04-25T09:58:37;101698.25;;;18.30;35.16
38616;BME280;24370;51.986;4.666;2023-04-25T10:01:08;101713.69;;;17.79;35.08
38616;BME280;24370;51.986;4.666;2023-04-25T10:03:35;101697.06;;;18.40;31.94
38616;BME280;24370;51.986;4.666;2023-04-25T10:06:07;101696.47;;;18.90;32.03
38616;BME280;24370;51.986;4.666;2023-04-25T10:08:34;101710.91;;;19.10;32.18
38616;BME280;24370;51.986;4.666;2023-04-25T10:11:06;101716.09;;;17.56;34.80
38616;BME280;24370;51.986;4.666;2023-04-25T10:13:32;101721.72;;;19.02;32.07
38616;BME280;24370;51.986;4.666;2023-04-25T10:15:59;101712.84;;;18.43;32.41
38616;BME280;24370;51.986;4.666;2023-04-25T10:18:26;101710.72;;;19.43;32.13
38616;BME280;24370;51.986;4.666;2023-04-25T10:20:54;101715.13;;;18.86;32.58
38616;BME280;24370;51.986;4.666;2023-04-25T10:23:20;101734.63;;;17.53;33.63
38616;BME280;24370;51.986;4.666;2023-04-25T10:25:46;101722.44;;;17.47;34.85
38616;BME280;24370;51.986;4.666;2023-04-25T10:28:11;101719.66;;;17.88;35.13
38616;BME280;24370;51.986;4.666;2023-04-25T10:30:37;101731.91;;;17.20;35.13
38616;BME280;24370;51.986;4.666;2023-04-25T10:33:16;101727.47;;;17.58;34.68
38616;BME280;24370;51.986;4.666;2023-04-25T10:35:44;101730.31;;;17.85;34.62
38616;BME280;24370;51.986;4.666;2023-04-25T10:38:11;101729.69;;;18.09;34.90
38616;BME280;24370;51.986;4.666;2023-04-25T10:40:38;101725.38;;;16.97;35.06
38616;BME280;24370;51.986;4.666;2023-04-25T10:46:02;101726.00;;;17.08;38.88
38616;BME280;24370;51.986;4.666;2023-04-25T10:48:29;101728.47;;;16.75;39.47
38616;BME280;24370;51.986;4.666;2023-04-25T10:51:11;101742.59;;;16.29;40.16
38616;BME280;24370;51.986;4.666;2023-04-25T10:53:37;101717.19;;;17.09;37.58
38616;BME280;24370;51.986;4.666;2023-04-25T10:56:19;101721.44;;;18.81;34.40
38616;BME280;24370;51.986;4.666;2023-04-25T10:58:45;101713.81;;;19.01;34.75
38616;BME280;24370;51.986;4.666;2023-04-25T11:01:19;101734.88;;;17.43;33.91
38616;BME280;24370;51.986;4.666;2023-04-25T11:03:45;101727.97;;;18.08;36.30
38616;BME280;24370;51.986;4.666;2023-04-25T11:08:57;101733.88;;;17.84;33.00
38616;BME280;24370;51.986;4.666;2023-04-25T11:11:22;101719.81;;;19.07;33.43
38616;BME280;24370;51.986;4.666;2023-04-25T11:13:49;101743.97;;;18.02;35.21
38616;BME280;24370;51.986;4.666;2023-04-25T11:16:15;101737.81;;;17.67;34.81
38616;BME280;24370;51.986;4.666;2023-04-25T11:18:42;101734.38;;;16.90;34.41
38616;BME280;24370;51.986;4.666;2023-04-25T11:21:07;101747.63;;;16.41;35.74
38616;BME280;24370;51.986;4.666;2023-04-25T11:23:33;101732.06;;;17.13;34.79
38616;BME280;24370;51.986;4.666;2023-04-25T11:25:58;101739.81;;;17.93;34.22
38616;BME280;24370;51.986;4.666;2023-04-25T11:28:26;101725.22;;;19.03;30.74
38616;BME280;24370;51.986;4.666;2023-04-25T11:30:52;101745.09;;;17.93;32.22
38616;BME280;24370;51.986;4.666;2023-04-25T11:33:18;101748.88;;;16.67;31.64
38616;BME280;24370;51.986;4.666;2023-04-25T11:35:47;101745.41;;;17.45;32.88
38616;BME280;24370;51.986;4.666;2023-04-25T11:38:13;101745.81;;;18.33;30.29
38616;BME280;24370;51.986;4.666;2023-04-25T11:40:38;101756.34;;;16.90;32.25
38616;BME280;24370;51.986;4.666;2023-04-25T11:43:08;101750.19;;;17.29;32.01
38616;BME280;24370;51.986;4.666;2023-04-25T11:45:36;101749.88;;;18.13;31.29
38616;BME280;24370;51.986;4.666;2023-04-25T11:48:02;101743.72;;;18.74;31.05
38616;BME280;24370;51.986;4.666;2023-04-25T11:50:28;101749.91;;;19.60;29.80
38616;BME280;24370;51.986;4.666;2023-04-25T11:52:56;101755.75;;;18.88;29.81
38616;BME280;24370;51.986;4.666;2023-04-25T11:55:21;101760.56;;;18.09;31.28
38616;BME280;24370;51.986;4.666;2023-04-25T11:57:49;101769.03;;;19.14;30.81
38616;BME280;24370;51.986;4.666;2023-04-25T12:00:17;101755.44;;;19.80;31.00
38616;BME280;24370;51.986;4.666;2023-04-25T12:02:45;101760.81;;;19.50;28.44
38616;BME280;24370;51.986;4.666;2023-04-25T12:05:12;101771.50;;;20.28;28.05
38616;BME280;24370;51.986;4.666;2023-04-25T12:07:38;101770.03;;;19.65;29.46
38616;BME280;24370;51.986;4.666;2023-04-25T12:10:08;101761.44;;;19.32;28.92
38616;BME280;24370;51.986;4.666;2023-04-25T12:12:35;101759.34;;;18.84;30.20
38616;BME280;24370;51.986;4.666;2023-04-25T12:15:24;101768.28;;;19.66;29.33
38616;BME280;24370;51.986;4.666;2023-04-25T12:17:51;101773.00;;;16.94;31.26
38616;BME280;24370;51.986;4.666;2023-04-25T12:20:23;101779.19;;;17.70;30.13
38616;BME280;24370;51.986;4.666;2023-04-25T12:22:51;101786.25;;;17.68;30.20
38616;BME280;24370;51.986;4.666;2023-04-25T12:25:39;101786.22;;;16.49;31.59
38616;BME280;24370;51.986;4.666;2023-04-25T12:28:19;101774.44;;;18.17;29.96
38616;BME280;24370;51.986;4.666;2023-04-25T12:33:21;101795.19;;;17.26;32.05
38616;BME280;24370;51.986;4.666;2023-04-25T12:35:46;101790.38;;;17.79;31.16
38616;BME280;24370;51.986;4.666;2023-04-25T12:38:20;101799.78;;;18.27;29.34
38616;BME280;24370;51.986;4.666;2023-04-25T12:40:46;101785.44;;;19.54;29.24
38616;BME280;24370;51.986;4.666;2023-04-25T12:43:11;101786.88;;;18.78;28.57
38616;BME280;24370;51.986;4.666;2023-04-25T12:45:36;101790.13;;;19.74;27.76
38616;BME280;24370;51.986;4.666;2023-04-25T12:48:02;101780.09;;;19.29;27.95
38616;BME280;24370;51.986;4.666;2023-04-25T12:50:27;101783.03;;;19.46;28.99
38616;BME280;24370;51.986;4.666;2023-04-25T12:52:53;101789.97;;;19.24;29.01
38616;BME280;24370;51.986;4.666;2023-04-25T12:55:18;101796.94;;;18.34;29.11
38616;BME280;24370;51.986;4.666;2023-04-25T12:57:44;101801.75;;;18.19;29.88